createdAt,value
2022-08-08T00:00:53.363Z,162.00
2022-08-08T00:01:08.544Z,162.00
2022-08-08T00:02:03.411Z,164.00
2022-08-08T00:02:48.978Z,162.00
2022-08-08T00:03:48.714Z,160.00
2022-08-08T00:04:49.000Z,157.00
2022-08-08T00:06:03.392Z,157.00
2022-08-08T00:06:48.665Z,160.00
2022-08-08T00:07:48.602Z,161.00
2022-08-08T00:08:49.119Z,164.00
2022-08-08T00:09:48.590Z,168.00
2022-08-08T00:10:49.749Z,169.00
2022-08-08T00:12:07.428Z,178.00
2022-08-08T00:12:56.866Z,187.00
2022-08-08T00:14:17.528Z,189.00
2022-08-08T00:15:03.403Z,190.00
2022-08-08T00:15:56.999Z,190.00
2022-08-08T00:16:48.499Z,189.00
2022-08-08T00:18:03.789Z,188.00
2022-08-08T00:18:48.481Z,191.00
2022-08-08T00:19:51.525Z,194.00
2022-08-08T00:20:49.535Z,195.00
2022-08-08T00:21:48.434Z,196.00
2022-08-08T00:22:48.468Z,197.00
2022-08-08T00:23:51.312Z,201.00
2022-08-08T00:24:48.385Z,197.00
2022-08-08T00:25:50.970Z,197.00
2022-08-08T00:26:48.389Z,197.00
2022-08-08T00:27:48.378Z,194.00
2022-08-08T00:28:48.375Z,194.00
2022-08-08T00:29:48.380Z,197.00
2022-08-08T00:31:00.283Z,198.00
2022-08-08T00:32:15.639Z,198.00
2022-08-08T00:32:48.310Z,199.00
2022-08-08T00:34:18.035Z,196.00
2022-08-08T00:34:48.255Z,196.00
2022-08-08T00:35:48.848Z,197.00
2022-08-08T00:36:51.640Z,199.00
2022-08-08T00:38:01.616Z,198.00
2022-08-08T00:38:52.107Z,202.00
2022-08-08T00:41:06.863Z,203.00
2022-08-08T00:41:14.778Z,201.00
2022-08-08T00:42:07.890Z,200.00
2022-08-08T00:42:48.203Z,199.00
2022-08-08T00:43:58.894Z,197.00
2022-08-08T00:44:48.150Z,198.00
2022-08-08T00:45:48.209Z,199.00
2022-08-08T00:46:57.991Z,201.00
2022-08-08T00:48:05.261Z,202.00
2022-08-08T00:48:59.236Z,206.00
2022-08-08T00:49:50.556Z,207.00
2022-08-08T00:50:52.334Z,204.00
2022-08-08T00:51:48.046Z,206.00
2022-08-08T00:52:48.740Z,209.00
2022-08-08T00:54:04.184Z,211.00
2022-08-08T00:54:48.009Z,212.00
2022-08-08T00:55:52.838Z,219.00
2022-08-08T00:56:48.021Z,218.00
2022-08-08T00:57:57.079Z,216.00
2022-08-08T00:58:54.689Z,226.00
2022-08-08T00:59:47.947Z,227.00
2022-08-08T01:00:50.678Z,233.00
2022-08-08T01:01:47.975Z,235.00
2022-08-08T01:04:01.089Z,232.00
2022-08-08T01:04:09.052Z,232.00
2022-08-08T01:04:47.846Z,230.00
2022-08-08T01:05:59.213Z,221.00
2022-08-08T01:06:48.127Z,228.00
2022-08-08T01:07:55.255Z,235.00
2022-08-08T01:08:51.909Z,218.00
2022-08-08T01:09:48.639Z,224.00
2022-08-08T01:10:50.991Z,255.00
2022-08-08T01:11:48.437Z,234.00
2022-08-08T01:12:47.756Z,217.00
2022-08-08T01:13:52.867Z,242.00
2022-08-08T01:14:54.028Z,244.00
2022-08-08T01:15:54.165Z,234.00
2022-08-08T01:16:47.713Z,242.00
2022-08-08T01:17:53.897Z,222.00
2022-08-08T01:18:53.655Z,251.00
2022-08-08T01:20:02.406Z,246.00
2022-08-08T01:20:47.670Z,260.00
2022-08-08T01:22:12.972Z,228.00
2022-08-08T01:22:47.629Z,236.00
2022-08-08T01:24:03.238Z,258.00
2022-08-08T01:24:50.781Z,243.00
2022-08-08T01:25:47.608Z,232.00
2022-08-08T01:26:48.159Z,243.00
2022-08-08T01:27:47.570Z,251.00
2022-08-08T01:28:47.548Z,254.00
2022-08-08T01:29:59.337Z,189.00
2022-08-08T01:30:47.536Z,250.00
2022-08-08T01:32:13.483Z,234.00
2022-08-08T01:32:47.503Z,245.00
2022-08-08T01:34:00.059Z,237.00
2022-08-08T01:34:47.451Z,243.00
2022-08-08T01:35:47.443Z,209.00
2022-08-08T01:36:48.554Z,254.00
2022-08-08T01:37:57.224Z,253.00
2022-08-08T01:38:47.434Z,301.00
2022-08-08T01:39:47.455Z,251.00
2022-08-08T01:40:47.403Z,243.00
2022-08-08T01:41:47.395Z,249.00
2022-08-08T01:42:47.387Z,248.00
2022-08-08T01:43:47.360Z,266.00
2022-08-08T01:44:50.387Z,259.00
2022-08-08T01:45:54.303Z,260.00
2022-08-08T01:46:52.179Z,240.00
2022-08-08T01:48:16.315Z,256.00
2022-08-08T01:48:48.199Z,239.00
2022-08-08T01:49:47.279Z,253.00
2022-08-08T01:50:48.977Z,248.00
2022-08-08T01:52:04.943Z,242.00
2022-08-08T01:54:20.141Z,234.00
2022-08-08T01:56:27.061Z,230.00
2022-08-08T01:56:37.384Z,232.00
2022-08-08T01:56:47.302Z,208.00
2022-08-08T01:58:10.959Z,223.00
2022-08-08T01:58:46.563Z,245.00
2022-08-08T02:00:01.566Z,241.00
2022-08-08T02:00:48.567Z,244.00
2022-08-08T02:01:54.990Z,247.00
2022-08-08T02:02:45.389Z,260.00
2022-08-08T02:03:55.379Z,258.00
2022-08-08T02:04:45.092Z,256.00
2022-08-08T02:05:55.974Z,251.00
2022-08-08T02:06:45.019Z,255.00
2022-08-08T02:07:48.906Z,254.00
2022-08-08T02:08:47.053Z,232.00
2022-08-08T02:10:04.164Z,243.00
2022-08-08T02:10:46.019Z,240.00
2022-08-08T02:11:52.680Z,257.00
2022-08-08T02:12:44.962Z,247.00
2022-08-08T02:13:53.623Z,262.00
2022-08-08T02:14:49.899Z,244.00
2022-08-08T02:15:44.930Z,256.00
2022-08-08T02:16:44.910Z,274.00
2022-08-08T02:17:44.871Z,282.00
2022-08-08T02:18:44.873Z,278.00
2022-08-08T02:20:07.257Z,269.00
2022-08-08T02:21:01.311Z,274.00
2022-08-08T02:21:44.819Z,279.00
2022-08-08T02:22:52.490Z,273.00
2022-08-08T02:23:44.806Z,286.00
2022-08-08T02:24:44.770Z,273.00
2022-08-08T02:25:48.783Z,277.00
2022-08-08T02:26:44.755Z,291.00
2022-08-08T02:27:44.724Z,283.00
2022-08-08T02:28:48.182Z,283.00
2022-08-08T02:29:51.643Z,282.00
2022-08-08T02:30:50.194Z,272.00
2022-08-08T02:32:01.257Z,264.00
2022-08-08T02:32:44.731Z,263.00
2022-08-08T02:34:07.993Z,267.00
2022-08-08T02:35:06.298Z,276.00
2022-08-08T02:36:04.525Z,276.00
2022-08-08T02:36:44.631Z,281.00
2022-08-08T02:37:53.077Z,273.00
2022-08-08T02:38:44.769Z,301.00
2022-08-08T02:39:58.365Z,296.00
2022-08-08T02:40:45.007Z,281.00
2022-08-08T02:42:04.424Z,282.00
2022-08-08T02:42:44.566Z,277.00
2022-08-08T02:44:37.592Z,270.00
2022-08-08T02:45:01.017Z,269.00
2022-08-08T02:45:54.114Z,267.00
2022-08-08T02:46:44.518Z,277.00
2022-08-08T02:47:46.968Z,283.00
2022-08-08T02:48:45.316Z,288.00
2022-08-08T02:49:47.467Z,284.00
2022-08-08T02:50:52.872Z,289.00
2022-08-08T02:51:55.550Z,284.00
2022-08-08T02:52:50.688Z,288.00
2022-08-08T02:53:44.414Z,275.00
2022-08-08T02:54:44.390Z,285.00
2022-08-08T02:55:44.369Z,285.00
2022-08-08T02:56:44.343Z,279.00
2022-08-08T02:57:45.569Z,266.00
2022-08-08T02:58:44.329Z,266.00
2022-08-08T03:00:01.754Z,275.00
2022-08-08T03:00:50.617Z,278.00
2022-08-08T03:01:50.255Z,277.00
2022-08-08T03:02:44.263Z,280.00
2022-08-08T03:03:46.276Z,274.00
2022-08-08T03:05:11.000Z,280.00
2022-08-08T03:05:46.392Z,272.00
2022-08-08T03:06:44.219Z,262.00
2022-08-08T03:07:57.991Z,265.00
2022-08-08T03:08:44.202Z,270.00
2022-08-08T03:09:44.181Z,272.00
2022-08-08T03:10:53.344Z,277.00
2022-08-08T03:12:01.250Z,273.00
2022-08-08T03:13:01.515Z,274.00
2022-08-08T03:15:59.339Z,278.00
2022-08-08T03:16:09.626Z,281.00
2022-08-08T03:16:34.264Z,288.00
2022-08-08T03:17:19.956Z,287.00
2022-08-08T03:18:17.053Z,283.00
2022-08-08T03:19:19.847Z,284.00
2022-08-08T03:20:17.043Z,276.00
2022-08-08T03:21:17.015Z,282.00
2022-08-08T03:22:50.936Z,281.00
2022-08-08T03:23:17.678Z,280.00
2022-08-08T03:24:16.983Z,275.00
2022-08-08T03:25:18.808Z,282.00
2022-08-08T03:26:16.954Z,286.00
2022-08-08T03:27:16.962Z,287.00
2022-08-08T03:28:19.153Z,286.00
2022-08-08T03:29:27.065Z,278.00
2022-08-08T03:30:19.260Z,287.00
2022-08-08T03:31:25.305Z,290.00
2022-08-08T03:32:16.867Z,291.00
2022-08-08T03:33:56.354Z,295.00
2022-08-08T03:34:16.861Z,293.00
2022-08-08T03:35:16.867Z,289.00
2022-08-08T03:36:20.013Z,296.00
2022-08-08T03:38:00.009Z,296.00
2022-08-08T03:39:14.360Z,292.00
2022-08-08T03:39:20.509Z,286.00
2022-08-08T03:40:29.673Z,281.00
2022-08-08T03:42:12.095Z,280.00
2022-08-08T03:42:33.488Z,283.00
2022-08-08T03:43:19.995Z,283.00
2022-08-08T03:44:16.702Z,281.00
2022-08-08T03:46:05.745Z,282.00
2022-08-08T03:46:16.690Z,282.00
2022-08-08T03:47:20.464Z,276.00
2022-08-08T03:48:21.053Z,267.00
2022-08-08T03:49:57.803Z,265.00
2022-08-08T03:50:20.140Z,256.00
2022-08-08T03:51:16.653Z,246.00
2022-08-08T03:52:16.611Z,247.00
2022-08-08T03:53:24.025Z,246.00
2022-08-08T03:54:41.236Z,234.00
2022-08-08T03:55:20.204Z,224.00
2022-08-08T03:56:31.614Z,217.00
2022-08-08T03:58:30.415Z,218.00
2022-08-08T03:58:38.553Z,227.00
2022-08-08T03:59:22.532Z,225.00
2022-08-08T04:00:18.132Z,222.00
2022-08-08T04:01:23.080Z,228.00
2022-08-08T04:02:32.980Z,226.00
2022-08-08T04:03:17.092Z,228.00
2022-08-08T04:04:16.521Z,223.00
2022-08-08T04:05:19.156Z,233.00
2022-08-08T04:06:16.421Z,232.00
2022-08-08T04:07:16.682Z,230.00
2022-08-08T04:08:23.072Z,224.00
2022-08-08T04:09:16.403Z,208.00
2022-08-08T04:10:16.376Z,219.00
2022-08-08T04:11:17.457Z,215.00
2022-08-08T04:12:16.373Z,251.00
2022-08-08T04:13:18.655Z,224.00
2022-08-08T04:14:33.317Z,228.00
2022-08-08T04:15:16.305Z,221.00
2022-08-08T04:16:18.511Z,219.00
2022-08-08T04:17:45.638Z,227.00
2022-08-08T04:18:17.191Z,230.00
2022-08-08T04:19:23.757Z,226.00
2022-08-08T04:20:16.246Z,225.00
2022-08-08T04:21:22.915Z,230.00
2022-08-08T04:22:16.619Z,226.00
2022-08-08T04:23:16.218Z,223.00
2022-08-08T04:24:28.181Z,221.00
2022-08-08T04:25:17.227Z,257.00
2022-08-08T04:26:16.179Z,233.00
2022-08-08T04:27:42.755Z,238.00
2022-08-08T04:28:40.412Z,235.00
2022-08-08T04:29:16.448Z,246.00
2022-08-08T04:30:18.055Z,168.00
2022-08-08T04:31:57.171Z,231.00
2022-08-08T04:32:30.888Z,241.00
2022-08-08T04:33:16.089Z,254.00
2022-08-08T04:34:16.051Z,241.00
2022-08-08T04:35:16.036Z,249.00
2022-08-08T04:36:16.032Z,230.00
2022-08-08T04:37:16.025Z,217.00
2022-08-08T04:38:21.167Z,251.00
2022-08-08T04:40:05.926Z,250.00
2022-08-08T04:40:17.742Z,227.00
2022-08-08T04:41:17.815Z,209.00
2022-08-08T04:42:17.168Z,232.00
2022-08-08T04:43:15.965Z,265.00
2022-08-08T04:44:15.905Z,223.00
2022-08-08T04:45:15.900Z,227.00
2022-08-08T04:46:15.902Z,229.00
2022-08-08T04:47:16.573Z,231.00
2022-08-08T04:48:15.871Z,236.00
2022-08-08T04:49:15.863Z,236.00
2022-08-08T04:50:25.276Z,238.00
2022-08-08T04:51:17.570Z,245.00
2022-08-08T04:52:15.822Z,246.00
2022-08-08T04:54:37.202Z,247.00
2022-08-08T04:54:44.984Z,243.00
2022-08-08T04:55:15.790Z,230.00
2022-08-08T04:56:15.744Z,235.00
2022-08-08T04:57:15.756Z,235.00
2022-08-08T04:58:17.552Z,242.00
2022-08-08T04:59:15.752Z,247.00
2022-08-08T05:00:19.453Z,234.00
2022-08-08T05:01:15.716Z,235.00
2022-08-08T05:02:15.729Z,227.00
2022-08-08T05:03:19.083Z,228.00
2022-08-08T05:04:15.647Z,230.00
2022-08-08T05:05:19.975Z,233.00
2022-08-08T05:06:18.405Z,230.00
2022-08-08T05:07:15.608Z,230.00
2022-08-08T05:08:15.581Z,226.00
2022-08-08T05:09:15.943Z,222.00
2022-08-08T05:10:15.578Z,220.00
2022-08-08T05:11:23.979Z,221.00
2022-08-08T05:12:34.926Z,220.00
2022-08-08T05:13:17.838Z,216.00
2022-08-08T05:14:15.505Z,214.00
2022-08-08T05:15:15.528Z,210.00
2022-08-08T05:16:52.271Z,210.00
2022-08-08T05:17:15.477Z,210.00
2022-08-08T05:18:15.465Z,206.00
2022-08-08T05:20:04.415Z,193.00
2022-08-08T05:20:19.127Z,191.00
2022-08-08T05:21:15.416Z,187.00
2022-08-08T05:22:27.618Z,186.00
2022-08-08T05:23:15.395Z,179.00
2022-08-08T05:24:15.394Z,184.00
2022-08-08T05:25:15.369Z,180.00
2022-08-08T05:26:15.368Z,182.00
2022-08-08T05:27:15.365Z,187.00
2022-08-08T05:28:15.329Z,200.00
2022-08-08T05:29:15.324Z,204.00
2022-08-08T05:30:15.337Z,203.00
2022-08-08T05:32:02.503Z,211.00
2022-08-08T05:32:15.296Z,214.00
2022-08-08T05:33:16.823Z,219.00
2022-08-08T05:34:15.276Z,218.00
2022-08-08T05:35:15.247Z,228.00
2022-08-08T05:36:25.452Z,235.00
2022-08-08T05:37:17.283Z,234.00
2022-08-08T05:38:30.775Z,242.00
2022-08-08T05:39:15.234Z,248.00
2022-08-08T05:40:16.501Z,244.00
2022-08-08T05:41:15.165Z,246.00
2022-08-08T05:42:15.165Z,246.00
2022-08-08T05:43:39.920Z,250.00
2022-08-08T05:44:15.138Z,243.00
2022-08-08T05:45:25.566Z,235.00
2022-08-08T05:46:15.091Z,225.00
2022-08-08T05:47:15.075Z,247.00
2022-08-08T05:48:15.109Z,239.00
2022-08-08T05:49:15.705Z,242.00
2022-08-08T05:50:15.050Z,246.00
2022-08-08T05:51:16.188Z,245.00
2022-08-08T05:52:15.033Z,246.00
2022-08-08T05:53:53.660Z,245.00
2022-08-08T05:54:28.245Z,245.00
2022-08-08T05:55:14.972Z,245.00
2022-08-08T05:56:15.585Z,248.00
2022-08-08T05:57:15.235Z,249.00
2022-08-08T05:58:17.941Z,251.00
2022-08-08T05:59:14.937Z,251.00
2022-08-08T06:00:22.450Z,252.00
2022-08-08T06:01:14.895Z,250.00
2022-08-08T06:02:14.883Z,253.00
2022-08-08T06:03:24.764Z,254.00
2022-08-08T06:04:23.496Z,258.00
2022-08-08T06:05:34.169Z,259.00
2022-08-08T06:06:17.965Z,257.00
2022-08-08T06:07:14.815Z,257.00
2022-08-08T06:08:33.458Z,259.00
2022-08-08T06:09:41.908Z,257.00
2022-08-08T06:10:24.734Z,256.00
2022-08-08T06:11:16.709Z,258.00
2022-08-08T06:12:18.606Z,258.00
2022-08-08T06:13:15.902Z,261.00
2022-08-08T06:14:17.801Z,263.00
2022-08-08T06:15:16.121Z,264.00
2022-08-08T06:16:14.697Z,265.00
2022-08-08T06:17:19.220Z,264.00
2022-08-08T06:18:20.368Z,262.00
2022-08-08T06:19:16.564Z,262.00
2022-08-08T06:20:16.329Z,260.00
2022-08-08T06:21:28.627Z,260.00
2022-08-08T06:23:14.610Z,259.00
2022-08-08T06:24:22.992Z,259.00
2022-08-08T06:25:14.608Z,260.00
2022-08-08T06:26:38.226Z,256.00
2022-08-08T06:27:14.573Z,255.00
2022-08-08T06:28:14.538Z,255.00
2022-08-08T06:29:49.362Z,256.00
2022-08-08T06:30:19.906Z,256.00
2022-08-08T06:31:15.448Z,258.00
2022-08-08T06:32:15.208Z,259.00
2022-08-08T06:33:15.229Z,258.00
2022-08-08T06:34:25.760Z,259.00
2022-08-08T06:36:08.636Z,258.00
2022-08-08T06:36:14.495Z,258.00
2022-08-08T06:37:25.195Z,257.00
2022-08-08T06:38:14.968Z,256.00
2022-08-08T06:39:14.463Z,255.00
2022-08-08T06:40:16.489Z,256.00
2022-08-08T06:41:15.217Z,257.00
2022-08-08T06:42:14.369Z,256.00
2022-08-08T06:43:14.388Z,254.00
2022-08-08T06:44:18.475Z,252.00
2022-08-08T06:45:14.333Z,254.00
2022-08-08T06:46:14.332Z,252.00
2022-08-08T06:47:14.308Z,254.00
2022-08-08T06:48:14.298Z,255.00
2022-08-08T06:49:14.346Z,255.00
2022-08-08T06:50:17.512Z,256.00
2022-08-08T06:51:14.252Z,254.00
2022-08-08T06:52:15.894Z,254.00
2022-08-08T06:53:20.171Z,254.00
2022-08-08T06:54:14.216Z,254.00
2022-08-08T06:55:14.202Z,254.00
2022-08-08T06:56:16.526Z,253.00
2022-08-08T06:57:22.835Z,253.00
2022-08-08T06:58:14.175Z,253.00
2022-08-08T06:59:14.144Z,252.00
2022-08-08T07:00:14.146Z,251.00
2022-08-08T07:02:17.549Z,251.00
2022-08-08T07:02:32.429Z,250.00
2022-08-08T07:03:19.521Z,250.00
2022-08-08T07:04:39.645Z,253.00
2022-08-08T07:05:20.331Z,253.00
2022-08-08T07:06:14.059Z,253.00
2022-08-08T07:07:14.041Z,252.00
2022-08-08T07:08:16.493Z,250.00
2022-08-08T07:09:15.358Z,249.00
2022-08-08T07:10:14.007Z,251.00
2022-08-08T07:11:22.452Z,252.00
2022-08-08T07:12:13.975Z,251.00
2022-08-08T07:13:13.983Z,250.00
2022-08-08T07:14:13.993Z,251.00
2022-08-08T07:15:23.474Z,250.00
2022-08-08T07:16:13.934Z,251.00
2022-08-08T07:17:14.342Z,249.00
2022-08-08T07:18:35.954Z,250.00
2022-08-08T07:19:13.893Z,250.00
2022-08-08T07:20:13.868Z,251.00
2022-08-08T07:21:19.126Z,252.00
2022-08-08T07:22:18.796Z,254.00
2022-08-08T07:23:13.890Z,253.00
2022-08-08T07:24:13.893Z,254.00
2022-08-08T07:25:14.422Z,253.00
2022-08-08T07:26:13.792Z,252.00
2022-08-08T07:27:16.415Z,251.00
2022-08-08T07:28:13.912Z,250.00
2022-08-08T07:29:58.869Z,251.00
2022-08-08T07:30:19.646Z,252.00
2022-08-08T07:31:13.861Z,250.00
2022-08-08T07:32:15.782Z,252.00
2022-08-08T07:33:17.434Z,252.00
2022-08-08T07:34:19.991Z,253.00
2022-08-08T07:35:14.060Z,252.00
2022-08-08T07:36:15.090Z,251.00
2022-08-08T07:37:13.720Z,252.00
2022-08-08T07:38:18.348Z,254.00
2022-08-08T07:39:13.654Z,254.00
2022-08-08T07:40:29.148Z,256.00
2022-08-08T07:41:23.579Z,254.00
2022-08-08T07:42:13.605Z,253.00
2022-08-08T07:43:13.601Z,253.00
2022-08-08T07:44:33.521Z,253.00
2022-08-08T07:45:13.539Z,253.00
2022-08-08T07:46:23.755Z,254.00
2022-08-08T07:47:13.525Z,255.00
2022-08-08T07:48:13.507Z,252.00
2022-08-08T07:49:13.474Z,253.00
2022-08-08T07:50:13.482Z,253.00
2022-08-08T07:51:23.402Z,253.00
2022-08-08T07:52:22.928Z,254.00
2022-08-08T07:53:13.460Z,254.00
2022-08-08T07:54:24.102Z,253.00
2022-08-08T07:55:13.408Z,251.00
2022-08-08T07:56:13.394Z,250.00
2022-08-08T07:57:17.069Z,249.00
2022-08-08T07:58:13.368Z,249.00
2022-08-08T07:59:14.292Z,249.00
2022-08-08T08:00:16.483Z,247.00
2022-08-08T08:01:13.382Z,248.00
2022-08-08T08:02:34.428Z,247.00
2022-08-08T08:03:23.339Z,249.00
2022-08-08T08:04:13.567Z,247.00
2022-08-08T08:05:14.486Z,246.00
2022-08-08T08:06:14.131Z,247.00
2022-08-08T08:07:13.227Z,246.00
2022-08-08T08:08:13.252Z,247.00
2022-08-08T08:09:13.201Z,246.00
2022-08-08T08:10:13.275Z,247.00
2022-08-08T08:11:18.467Z,248.00
2022-08-08T08:12:35.250Z,248.00
2022-08-08T08:13:17.891Z,248.00
2022-08-08T08:14:15.257Z,249.00
2022-08-08T08:15:15.254Z,249.00
2022-08-08T08:16:13.135Z,251.00
2022-08-08T08:17:14.019Z,250.00
2022-08-08T08:18:14.208Z,251.00
2022-08-08T08:19:15.007Z,252.00
2022-08-08T08:20:13.092Z,252.00
2022-08-08T08:21:14.512Z,248.00
2022-08-08T08:22:14.945Z,246.00
2022-08-08T08:23:13.651Z,246.00
2022-08-08T08:24:13.014Z,246.00
2022-08-08T08:25:13.036Z,250.00
2022-08-08T08:26:13.012Z,251.00
2022-08-08T08:27:12.999Z,250.00
2022-08-08T08:28:21.448Z,251.00
2022-08-08T08:29:13.834Z,252.00
2022-08-08T08:30:12.968Z,252.00
2022-08-08T08:31:12.956Z,254.00
2022-08-08T08:32:24.051Z,255.00
2022-08-08T08:33:12.896Z,256.00
2022-08-08T08:34:12.936Z,256.00
2022-08-08T08:35:13.295Z,257.00
2022-08-08T08:36:20.329Z,258.00
2022-08-08T08:37:15.580Z,261.00
2022-08-08T08:38:17.950Z,263.00
2022-08-08T08:39:17.322Z,264.00
2022-08-08T08:40:13.136Z,269.00
2022-08-08T08:41:13.219Z,273.00
2022-08-08T08:42:13.378Z,276.00
2022-08-08T08:43:15.428Z,275.00
2022-08-08T08:44:14.049Z,275.00
2022-08-08T08:45:22.684Z,274.00
2022-08-08T08:46:17.532Z,272.00
2022-08-08T08:47:12.764Z,272.00
2022-08-08T08:48:19.305Z,273.00
2022-08-08T08:49:12.727Z,276.00
2022-08-08T08:50:17.318Z,276.00
2022-08-08T08:51:12.691Z,276.00
2022-08-08T08:52:12.717Z,274.00
2022-08-08T08:53:27.872Z,277.00
2022-08-08T08:54:12.693Z,279.00
2022-08-08T08:55:12.725Z,276.00
2022-08-08T08:56:12.625Z,277.00
2022-08-08T08:57:17.322Z,276.00
2022-08-08T08:58:12.653Z,277.00
2022-08-08T08:59:15.696Z,280.00
2022-08-08T09:00:17.133Z,281.00
2022-08-08T09:01:13.393Z,282.00
2022-08-08T09:02:12.568Z,285.00
2022-08-08T09:03:12.587Z,288.00
2022-08-08T09:04:32.049Z,287.00
2022-08-08T09:05:13.985Z,287.00
2022-08-08T09:06:26.828Z,289.00
2022-08-08T09:07:12.762Z,290.00
2022-08-08T09:08:20.595Z,292.00
2022-08-08T09:09:26.634Z,291.00
2022-08-08T09:10:17.023Z,292.00
2022-08-08T09:11:12.498Z,293.00
2022-08-08T09:12:12.419Z,297.00
2022-08-08T09:13:12.402Z,298.00
2022-08-08T09:14:12.417Z,298.00
2022-08-08T09:15:12.388Z,300.00
2022-08-08T09:16:12.415Z,302.00
2022-08-08T09:17:17.929Z,301.00
2022-08-08T09:18:13.094Z,302.00
2022-08-08T09:19:12.381Z,297.00
2022-08-08T09:21:58.840Z,299.00
2022-08-08T09:22:07.754Z,303.00
2022-08-08T09:22:13.199Z,302.00
2022-08-08T09:23:17.508Z,303.00
2022-08-08T09:24:13.469Z,304.00
2022-08-08T09:25:13.150Z,303.00
2022-08-08T09:26:13.162Z,306.00
2022-08-08T09:27:20.297Z,303.00
2022-08-08T09:28:13.148Z,302.00
2022-08-08T09:29:13.091Z,301.00
2022-08-08T09:30:14.704Z,302.00
2022-08-08T09:31:13.356Z,303.00
2022-08-08T09:32:14.340Z,304.00
2022-08-08T09:34:14.911Z,302.00
2022-08-08T09:34:36.448Z,305.00
2022-08-08T09:35:16.064Z,304.00
2022-08-08T09:36:13.072Z,303.00
2022-08-08T09:37:59.074Z,303.00
2022-08-08T09:38:17.984Z,306.00
2022-08-08T09:39:19.060Z,309.00
2022-08-08T09:40:13.041Z,308.00
2022-08-08T09:41:12.996Z,309.00
2022-08-08T09:42:21.361Z,306.00
2022-08-08T09:43:16.661Z,306.00
2022-08-08T09:44:18.804Z,307.00
2022-08-08T09:45:20.708Z,305.00
2022-08-08T09:46:16.878Z,306.00
2022-08-08T09:47:25.948Z,308.00
2022-08-08T09:48:21.868Z,309.00
2022-08-08T09:49:41.266Z,309.00
2022-08-08T09:50:14.044Z,308.00
2022-08-08T09:51:12.869Z,305.00
2022-08-08T09:52:16.066Z,306.00
2022-08-08T09:53:23.625Z,309.00
2022-08-08T09:54:19.770Z,312.00
2022-08-08T09:55:17.565Z,314.00
2022-08-08T09:56:21.728Z,314.00
2022-08-08T09:57:17.061Z,312.00
2022-08-08T09:58:16.518Z,311.00
2022-08-08T09:59:40.337Z,313.00
2022-08-08T10:01:14.472Z,308.00
2022-08-08T10:02:14.707Z,306.00
2022-08-08T10:03:12.730Z,307.00
2022-08-08T10:04:12.716Z,306.00
2022-08-08T10:05:15.110Z,304.00
2022-08-08T10:06:12.678Z,299.00
2022-08-08T10:07:13.935Z,297.00
2022-08-08T10:08:12.650Z,299.00
2022-08-08T10:09:13.386Z,354.00
2022-08-08T10:10:12.688Z,302.00
2022-08-08T10:12:28.083Z,292.00
2022-08-08T10:12:53.334Z,297.00
2022-08-08T10:13:14.818Z,300.00
2022-08-08T10:14:28.159Z,300.00
2022-08-08T10:15:17.511Z,305.00
2022-08-08T10:16:12.598Z,309.00
2022-08-08T10:17:56.062Z,311.00
2022-08-08T10:18:17.624Z,312.00
2022-08-08T10:19:12.562Z,313.00
2022-08-08T10:20:12.588Z,314.00
2022-08-08T10:21:22.585Z,313.00
2022-08-08T10:22:12.519Z,313.00
2022-08-08T10:23:13.195Z,313.00
2022-08-08T10:24:29.697Z,273.00
2022-08-08T10:25:15.817Z,324.00
2022-08-08T10:26:29.754Z,321.00
2022-08-08T10:27:13.090Z,374.00
2022-08-08T10:28:14.975Z,310.00
2022-08-08T10:29:12.431Z,297.00
2022-08-08T10:30:16.208Z,298.00
2022-08-08T10:31:12.403Z,302.00
2022-08-08T10:32:12.402Z,303.00
2022-08-08T10:33:12.489Z,304.00
2022-08-08T10:34:21.018Z,307.00
2022-08-08T10:36:06.279Z,308.00
2022-08-08T10:36:22.382Z,310.00
2022-08-08T10:37:12.357Z,316.00
2022-08-08T10:38:13.741Z,315.00
2022-08-08T10:39:14.057Z,315.00
2022-08-08T10:40:12.492Z,312.00
2022-08-08T10:41:12.288Z,312.00
2022-08-08T10:42:14.897Z,314.00
2022-08-08T10:43:12.301Z,314.00
2022-08-08T10:44:12.278Z,318.00
2022-08-08T10:45:12.273Z,318.00
2022-08-08T10:46:29.437Z,318.00
2022-08-08T10:47:12.250Z,318.00
2022-08-08T10:48:12.243Z,311.00
2022-08-08T10:49:12.223Z,306.00
2022-08-08T10:50:15.746Z,315.00
2022-08-08T10:51:12.211Z,259.00
2022-08-08T10:52:12.178Z,315.00
2022-08-08T10:53:12.614Z,241.00
2022-08-08T10:54:12.174Z,348.00
2022-08-08T10:55:12.143Z,284.00
2022-08-08T10:56:27.852Z,379.00
2022-08-08T10:57:12.140Z,298.00
2022-08-08T10:58:12.131Z,293.00
2022-08-08T10:59:14.645Z,287.00
2022-08-08T11:00:12.270Z,327.00
2022-08-08T11:01:12.599Z,269.00
2022-08-08T11:02:12.124Z,295.00
2022-08-08T11:03:12.065Z,301.00
2022-08-08T11:04:12.157Z,301.00
2022-08-08T11:05:14.914Z,300.00
2022-08-08T11:06:12.575Z,304.00
2022-08-08T11:07:40.702Z,287.00
2022-08-08T11:08:53.545Z,262.00
2022-08-08T11:09:19.223Z,280.00
2022-08-08T11:10:11.989Z,288.00
2022-08-08T11:12:00.087Z,288.00
2022-08-08T11:12:13.601Z,285.00
2022-08-08T11:13:29.511Z,355.00
2022-08-08T11:14:12.455Z,267.00
2022-08-08T11:15:11.929Z,292.00
2022-08-08T11:16:11.886Z,287.00
2022-08-08T11:17:15.720Z,214.00
2022-08-08T11:18:11.864Z,294.00
2022-08-08T11:19:11.861Z,331.00
2022-08-08T11:20:12.773Z,285.00
2022-08-08T11:21:20.436Z,301.00
2022-08-08T11:22:11.827Z,281.00
2022-08-08T11:23:11.831Z,429.00
2022-08-08T11:24:11.791Z,315.00
2022-08-08T11:25:13.768Z,287.00
2022-08-08T11:26:11.771Z,286.00
2022-08-08T11:27:19.906Z,286.00
2022-08-08T11:28:11.773Z,277.00
2022-08-08T11:29:11.743Z,283.00
2022-08-08T11:30:20.017Z,293.00
2022-08-08T11:31:11.738Z,300.00
2022-08-08T11:32:13.334Z,318.00
2022-08-08T11:33:12.429Z,287.00
2022-08-08T11:34:24.417Z,250.00
2022-08-08T11:35:29.413Z,264.00
2022-08-08T11:36:13.419Z,285.00
2022-08-08T11:37:15.137Z,307.00
2022-08-08T11:38:39.130Z,292.00
2022-08-08T11:39:13.003Z,285.00
2022-08-08T11:40:11.650Z,258.00
2022-08-08T11:41:11.624Z,273.00
2022-08-08T11:42:11.606Z,281.00
2022-08-08T11:43:11.603Z,286.00
2022-08-08T11:44:11.587Z,285.00
2022-08-08T11:45:11.571Z,282.00
2022-08-08T11:46:14.305Z,280.00
2022-08-08T11:47:13.012Z,272.00
2022-08-08T11:48:11.547Z,268.00
2022-08-08T11:49:11.539Z,282.00
2022-08-08T11:50:11.515Z,261.00
2022-08-08T11:51:30.487Z,266.00
2022-08-08T11:52:18.734Z,269.00
2022-08-08T11:53:11.468Z,274.00
2022-08-08T11:54:31.903Z,278.00
2022-08-08T11:55:11.478Z,283.00
2022-08-08T11:56:11.442Z,286.00
2022-08-08T11:57:16.646Z,287.00
2022-08-08T11:58:14.839Z,290.00
2022-08-08T11:59:11.410Z,290.00
2022-08-08T12:00:11.401Z,290.00
2022-08-08T12:01:16.246Z,292.00
2022-08-08T12:02:31.033Z,296.00
2022-08-08T12:03:11.419Z,300.00
2022-08-08T12:04:11.337Z,301.00
2022-08-08T12:05:12.204Z,305.00
2022-08-08T12:06:11.327Z,311.00
2022-08-08T12:07:16.627Z,316.00
2022-08-08T12:08:11.428Z,315.00
2022-08-08T12:09:16.894Z,302.00
2022-08-08T12:10:11.356Z,297.00
2022-08-08T12:11:11.273Z,298.00
2022-08-08T12:12:11.245Z,303.00
2022-08-08T12:13:11.266Z,305.00
2022-08-08T12:14:11.871Z,303.00
2022-08-08T12:15:11.240Z,304.00
2022-08-08T12:16:11.254Z,302.00
2022-08-08T12:17:11.248Z,302.00
2022-08-08T12:18:11.262Z,301.00
2022-08-08T12:19:11.228Z,302.00
2022-08-08T12:20:14.716Z,300.00
2022-08-08T12:21:11.357Z,303.00
2022-08-08T12:22:13.280Z,327.00
2022-08-08T12:23:14.053Z,321.00
2022-08-08T12:24:11.192Z,312.00
2022-08-08T12:25:11.143Z,299.00
2022-08-08T12:26:16.768Z,287.00
2022-08-08T12:27:11.122Z,285.00
2022-08-08T12:28:15.272Z,278.00
2022-08-08T12:29:11.063Z,247.00
2022-08-08T12:30:18.382Z,238.00
2022-08-08T12:31:11.078Z,245.00